sensor_id;sensor_type;location;lat;lon;timestamp;temperature;humidity
3275;DHT22;1649;53.672;10.064;2023-08-06T00:01:47;16.90;99.90
3275;DHT22;1649;53.672;10.064;2023-08-06T00:04:12;16.90;99.90
3275;DHT22;1649;53.672;10.064;2023-08-06T00:06:38;16.90;99.90
3275;DHT22;1649;53.672;10.064;2023-08-06T00:09:03;16.90;99.90
3275;DHT22;1649;53.672;10.064;2023-08-06T00:11:29;16.80;99.90
3275;DHT22;1649;53.672;10.064;2023-08-06T00:13:54;16.70;99.90
3275;DHT22;1649;53.672;10.064;2023-08-06T00:16:20;16.60;99.90
3275;DHT22;1649;53.672;10.064;2023-08-06T00:18:45;16.50;99.90
3275;DHT22;1649;53.672;10.064;2023-08-06T00:21:11;16.50;99.90
3275;DHT22;1649;53.672;10.064;2023-08-06T00:23:37;16.50;99.90
3275;DHT22;1649;53.672;10.064;2023-08-06T00:26:03;16.50;99.90
3275;DHT22;1649;53.672;10.064;2023-08-06T00:28:28;16.50;99.90
3275;DHT22;1649;53.672;10.064;2023-08-06T00:30:54;16.40;99.90
3275;DHT22;1649;53.672;10.064;2023-08-06T00:33:21;16.30;99.90
3275;DHT22;1649;53.672;10.064;2023-08-06T00:35:46;16.30;99.90
3275;DHT22;1649;53.672;10.064;2023-08-06T00:38:12;16.20;99.90
3275;DHT22;1649;53.672;10.064;2023-08-06T00:40:38;16.10;99.90
3275;DHT22;1649;53.672;10.064;2023-08-06T00:43:03;15.90;99.90
3275;DHT22;1649;53.672;10.064;2023-08-06T00:45:29;15.90;99.90
3275;DHT22;1649;53.672;10.064;2023-08-06T00:47:55;15.90;99.90
3275;DHT22;1649;53.672;10.064;2023-08-06T00:50:21;15.90;99.90
3275;DHT22;1649;53.672;10.064;2023-08-06T00:52:48;15.80;99.90
3275;DHT22;1649;53.672;10.064;2023-08-06T00:55:15;15.80;99.90
3275;DHT22;1649;53.672;10.064;2023-08-06T00:57:41;15.70;99.90
3275;DHT22;1649;53.672;10.064;2023-08-06T01:00:07;15.60;99.90
3275;DHT22;1649;53.672;10.064;2023-08-06T01:02:33;15.70;99.90
3275;DHT22;1649;53.672;10.064;2023-08-06T01:04:58;15.70;99.90
3275;DHT22;1649;53.672;10.064;2023-08-06T01:07:48;15.70;99.90
3275;DHT22;1649;53.672;10.064;2023-08-06T01:15:54;15.70;99.90
3275;DHT22;1649;53.672;10.064;2023-08-06T01:18:22;15.70;99.90
3275;DHT22;1649;53.672;10.064;2023-08-06T01:20:48;15.70;99.90
3275;DHT22;1649;53.672;10.064;2023-08-06T01:23:15;15.70;99.90
3275;DHT22;1649;53.672;10.064;2023-08-06T01:28:27;15.70;99.90
3275;DHT22;1649;53.672;10.064;2023-08-06T01:30:55;15.70;99.90
3275;DHT22;1649;53.672;10.064;2023-08-06T01:33:24;15.60;99.90
3275;DHT22;1649;53.672;10.064;2023-08-06T01:35:54;15.60;99.90
3275;DHT22;1649;53.672;10.064;2023-08-06T01:38:20;15.70;99.90
3275;DHT22;1649;53.672;10.064;2023-08-06T01:40:45;15.70;99.90
3275;DHT22;1649;53.672;10.064;2023-08-06T01:43:11;15.70;99.90
3275;DHT22;1649;53.672;10.064;2023-08-06T01:45:36;15.70;99.90
3275;DHT22;1649;53.672;10.064;2023-08-06T01:48:02;15.70;99.90
3275;DHT22;1649;53.672;10.064;2023-08-06T01:50:27;15.70;99.90
3275;DHT22;1649;53.672;10.064;2023-08-06T01:52:53;15.70;99.90
3275;DHT22;1649;53.672;10.064;2023-08-06T01:55:18;15.70;99.90
3275;DHT22;1649;53.672;10.064;2023-08-06T01:57:44;15.70;99.90
3275;DHT22;1649;53.672;10.064;2023-08-06T02:00:10;15.70;99.90
3275;DHT22;1649;53.672;10.064;2023-08-06T02:02:36;15.70;99.90
3275;DHT22;1649;53.672;10.064;2023-08-06T02:05:01;15.70;99.90
3275;DHT22;1649;53.672;10.064;2023-08-06T02:07:27;15.60;99.90
3275;DHT22;1649;53.672;10.064;2023-08-06T02:09:52;15.50;99.90
3275;DHT22;1649;53.672;10.064;2023-08-06T02:12:18;15.50;99.90
3275;DHT22;1649;53.672;10.064;2023-08-06T02:14:43;15.60;99.90
3275;DHT22;1649;53.672;10.064;2023-08-06T02:17:09;15.60;99.90
3275;DHT22;1649;53.672;10.064;2023-08-06T02:19:34;15.60;99.90
3275;DHT22;1649;53.672;10.064;2023-08-06T02:22:00;15.60;99.90
3275;DHT22;1649;53.672;10.064;2023-08-06T02:24:25;15.60;99.90
3275;DHT22;1649;53.672;10.064;2023-08-06T02:26:51;15.50;99.90
3275;DHT22;1649;53.672;10.064;2023-08-06T02:29:17;15.60;99.90
3275;DHT22;1649;53.672;10.064;2023-08-06T02:31:43;15.50;99.90
3275;DHT22;1649;53.672;10.064;2023-08-06T02:34:08;15.50;99.90
3275;DHT22;1649;53.672;10.064;2023-08-06T02:36:33;15.60;99.90
3275;DHT22;1649;53.672;10.064;2023-08-06T02:38:59;15.50;99.90
3275;DHT22;1649;53.672;10.064;2023-08-06T02:41:24;15.60;99.90
3275;DHT22;1649;53.672;10.064;2023-08-06T02:43:50;15.50;99.90
3275;DHT22;1649;53.672;10.064;2023-08-06T02:46:15;15.50;99.90
3275;DHT22;1649;53.672;10.064;2023-08-06T02:48:41;15.50;99.90
3275;DHT22;1649;53.672;10.064;2023-08-06T02:51:06;15.60;99.90
3275;DHT22;1649;53.672;10.064;2023-08-06T02:53:32;15.50;99.90
3275;DHT22;1649;53.672;10.064;2023-08-06T02:55:57;15.50;99.90
3275;DHT22;1649;53.672;10.064;2023-08-06T02:58:24;15.40;99.90
3275;DHT22;1649;53.672;10.064;2023-08-06T03:01:19;15.50;99.90
3275;DHT22;1649;53.672;10.064;2023-08-06T03:03:44;15.50;99.90
3275;DHT22;1649;53.672;10.064;2023-08-06T03:06:10;15.50;99.90
3275;DHT22;1649;53.672;10.064;2023-08-06T03:08:36;15.50;99.90
3275;DHT22;1649;53.672;10.064;2023-08-06T03:11:01;15.50;99.90
3275;DHT22;1649;53.672;10.064;2023-08-06T03:13:27;15.50;99.90
3275;DHT22;1649;53.672;10.064;2023-08-06T03:15:57;15.50;99.90
3275;DHT22;1649;53.672;10.064;2023-08-06T03:18:23;15.50;99.90
3275;DHT22;1649;53.672;10.064;2023-08-06T03:20:49;15.50;99.90
3275;DHT22;1649;53.672;10.064;2023-08-06T03:23:14;15.40;99.90
3275;DHT22;1649;53.672;10.064;2023-08-06T03:25:40;15.40;99.90
3275;DHT22;1649;53.672;10.064;2023-08-06T03:28:06;15.40;99.90
3275;DHT22;1649;53.672;10.064;2023-08-06T03:30:31;15.40;99.90
3275;DHT22;1649;53.672;10.064;2023-08-06T03:32:56;15.50;99.90
3275;DHT22;1649;53.672;10.064;2023-08-06T03:35:22;15.40;99.90
3275;DHT22;1649;53.672;10.064;2023-08-06T03:37:47;15.40;99.90
3275;DHT22;1649;53.672;10.064;2023-08-06T03:40:15;15.40;99.90
3275;DHT22;1649;53.672;10.064;2023-08-06T03:42:40;15.40;99.90
3275;DHT22;1649;53.672;10.064;2023-08-06T03:45:06;15.40;99.90
3275;DHT22;1649;53.672;10.064;2023-08-06T03:47:32;15.30;99.90
3275;DHT22;1649;53.672;10.064;2023-08-06T03:49:57;15.30;99.90
3275;DHT22;1649;53.672;10.064;2023-08-06T03:52:23;15.30;99.90
3275;DHT22;1649;53.672;10.064;2023-08-06T03:54:48;15.30;99.90
3275;DHT22;1649;53.672;10.064;2023-08-06T03:57:14;15.30;99.90
3275;DHT22;1649;53.672;10.064;2023-08-06T03:59:39;15.30;99.90
3275;DHT22;1649;53.672;10.064;2023-08-06T04:02:05;15.40;99.90
3275;DHT22;1649;53.672;10.064;2023-08-06T04:04:30;15.40;99.90
3275;DHT22;1649;53.672;10.064;2023-08-06T04:06:56;15.30;99.90
3275;DHT22;1649;53.672;10.064;2023-08-06T04:09:21;15.30;99.90
3275;DHT22;1649;53.672;10.064;2023-08-06T04:11:47;15.20;99.90
3275;DHT22;1649;53.672;10.064;2023-08-06T04:14:12;15.20;99.90
3275;DHT22;1649;53.672;10.064;2023-08-06T04:16:38;15.20;99.90
3275;DHT22;1649;53.672;10.064;2023-08-06T04:19:03;15.10;99.90
3275;DHT22;1649;53.672;10.064;2023-08-06T04:21:29;15.10;99.90
3275;DHT22;1649;53.672;10.064;2023-08-06T04:23:56;15.00;99.90
3275;DHT22;1649;53.672;10.064;2023-08-06T04:26:22;15.00;99.90
3275;DHT22;1649;53.672;10.064;2023-08-06T04:28:47;15.00;99.90
3275;DHT22;1649;53.672;10.064;2023-08-06T04:31:14;15.00;99.90
3275;DHT22;1649;53.672;10.064;2023-08-06T04:33:39;15.00;99.90
3275;DHT22;1649;53.672;10.064;2023-08-06T04:36:05;14.90;99.90
3275;DHT22;1649;53.672;10.064;2023-08-06T04:38:31;15.00;99.90
3275;DHT22;1649;53.672;10.064;2023-08-06T04:40:57;15.00;99.90
3275;DHT22;1649;53.672;10.064;2023-08-06T04:43:23;14.90;99.90
3275;DHT22;1649;53.672;10.064;2023-08-06T04:45:53;14.90;99.90
3275;DHT22;1649;53.672;10.064;2023-08-06T04:48:18;14.90;99.90
3275;DHT22;1649;53.672;10.064;2023-08-06T04:50:45;14.90;99.90
3275;DHT22;1649;53.672;10.064;2023-08-06T04:53:10;14.90;99.90
3275;DHT22;1649;53.672;10.064;2023-08-06T04:55:36;14.90;99.90
3275;DHT22;1649;53.672;10.064;2023-08-06T04:58:02;14.90;99.90
3275;DHT22;1649;53.672;10.064;2023-08-06T05:00:27;14.90;99.90
3275;DHT22;1649;53.672;10.064;2023-08-06T05:02:53;14.90;99.90
3275;DHT22;1649;53.672;10.064;2023-08-06T05:05:18;15.00;99.90
3275;DHT22;1649;53.672;10.064;2023-08-06T05:07:47;15.00;99.90
3275;DHT22;1649;53.672;10.064;2023-08-06T05:10:13;15.00;99.90
3275;DHT22;1649;53.672;10.064;2023-08-06T05:12:39;15.00;99.90
3275;DHT22;1649;53.672;10.064;2023-08-06T05:15:04;15.00;99.90
3275;DHT22;1649;53.672;10.064;2023-08-06T05:17:30;15.00;99.90
3275;DHT22;1649;53.672;10.064;2023-08-06T05:19:55;15.00;99.90
3275;DHT22;1649;53.672;10.064;2023-08-06T05:22:21;15.00;99.90
3275;DHT22;1649;53.672;10.064;2023-08-06T05:24:46;14.90;99.90
3275;DHT22;1649;53.672;10.064;2023-08-06T05:27:12;14.90;99.90
3275;DHT22;1649;53.672;10.064;2023-08-06T05:29:37;14.90;99.90
3275;DHT22;1649;53.672;10.064;2023-08-06T05:32:03;14.90;99.90
3275;DHT22;1649;53.672;10.064;2023-08-06T05:34:29;15.00;99.90
3275;DHT22;1649;53.672;10.064;2023-08-06T05:36:54;15.00;99.90
3275;DHT22;1649;53.672;10.064;2023-08-06T05:39:20;15.10;99.90
3275;DHT22;1649;53.672;10.064;2023-08-06T05:41:45;15.00;99.90
3275;DHT22;1649;53.672;10.064;2023-08-06T05:44:11;15.00;99.90
3275;DHT22;1649;53.672;10.064;2023-08-06T05:46:36;15.10;99.90
3275;DHT22;1649;53.672;10.064;2023-08-06T05:49:02;15.10;99.90
3275;DHT22;1649;53.672;10.064;2023-08-06T05:51:27;15.10;99.90
3275;DHT22;1649;53.672;10.064;2023-08-06T05:53:53;15.10;99.90
3275;DHT22;1649;53.672;10.064;2023-08-06T05:56:19;15.20;99.90
3275;DHT22;1649;53.672;10.064;2023-08-06T05:58:44;15.20;99.90
3275;DHT22;1649;53.672;10.064;2023-08-06T06:01:11;15.30;99.90
3275;DHT22;1649;53.672;10.064;2023-08-06T06:03:37;15.30;99.90
3275;DHT22;1649;53.672;10.064;2023-08-06T06:06:02;15.30;99.90
3275;DHT22;1649;53.672;10.064;2023-08-06T06:08:28;15.30;99.90
3275;DHT22;1649;53.672;10.064;2023-08-06T06:10:54;15.30;99.90
3275;DHT22;1649;53.672;10.064;2023-08-06T06:13:19;15.30;99.90
3275;DHT22;1649;53.672;10.064;2023-08-06T06:15:46;15.30;99.90
3275;DHT22;1649;53.672;10.064;2023-08-06T06:18:13;15.40;99.90
3275;DHT22;1649;53.672;10.064;2023-08-06T06:20:38;15.50;99.90
3275;DHT22;1649;53.672;10.064;2023-08-06T06:23:04;15.40;99.90
3275;DHT22;1649;53.672;10.064;2023-08-06T06:25:29;15.40;99.90
3275;DHT22;1649;53.672;10.064;2023-08-06T06:27:55;15.40;99.90
3275;DHT22;1649;53.672;10.064;2023-08-06T06:30:20;15.40;99.90
3275;DHT22;1649;53.672;10.064;2023-08-06T06:32:46;15.50;99.90
3275;DHT22;1649;53.672;10.064;2023-08-06T06:35:12;15.50;99.90
3275;DHT22;1649;53.672;10.064;2023-08-06T06:37:38;15.50;99.90
3275;DHT22;1649;53.672;10.064;2023-08-06T06:40:03;15.60;99.90
3275;DHT22;1649;53.672;10.064;2023-08-06T06:42:29;15.70;99.90
3275;DHT22;1649;53.672;10.064;2023-08-06T06:44:55;15.70;99.90
3275;DHT22;1649;53.672;10.064;2023-08-06T06:47:20;15.80;99.90
3275;DHT22;1649;53.672;10.064;2023-08-06T06:49:45;15.80;99.90
3275;DHT22;1649;53.672;10.064;2023-08-06T06:52:11;15.80;99.90
3275;DHT22;1649;53.672;10.064;2023-08-06T06:54:37;15.90;99.90
3275;DHT22;1649;53.672;10.064;2023-08-06T06:57:02;15.90;99.90
3275;DHT22;1649;53.672;10.064;2023-08-06T06:59:28;15.90;99.90
3275;DHT22;1649;53.672;10.064;2023-08-06T07:01:53;16.00;99.90
3275;DHT22;1649;53.672;10.064;2023-08-06T07:04:19;15.90;99.90
3275;DHT22;1649;53.672;10.064;2023-08-06T07:06:44;15.90;99.90
3275;DHT22;1649;53.672;10.064;2023-08-06T07:09:10;16.00;99.90
3275;DHT22;1649;53.672;10.064;2023-08-06T07:11:35;16.10;99.90
3275;DHT22;1649;53.672;10.064;2023-08-06T07:14:01;16.10;99.90
3275;DHT22;1649;53.672;10.064;2023-08-06T07:16:26;16.00;99.90
3275;DHT22;1649;53.672;10.064;2023-08-06T07:18:53;16.00;99.90
3275;DHT22;1649;53.672;10.064;2023-08-06T07:21:19;16.00;99.90
3275;DHT22;1649;53.672;10.064;2023-08-06T07:23:45;16.10;99.90
3275;DHT22;1649;53.672;10.064;2023-08-06T07:26:11;16.20;99.90
3275;DHT22;1649;53.672;10.064;2023-08-06T07:28:36;16.20;99.90
3275;DHT22;1649;53.672;10.064;2023-08-06T07:31:03;16.30;99.90
3275;DHT22;1649;53.672;10.064;2023-08-06T07:33:29;16.30;99.90
3275;DHT22;1649;53.672;10.064;2023-08-06T07:35:54;16.40;99.90
3275;DHT22;1649;53.672;10.064;2023-08-06T07:38:20;16.40;99.90
3275;DHT22;1649;53.672;10.064;2023-08-06T07:40:45;16.40;99.90
3275;DHT22;1649;53.672;10.064;2023-08-06T07:43:11;16.50;99.90
3275;DHT22;1649;53.672;10.064;2023-08-06T07:45:37;16.50;99.90
3275;DHT22;1649;53.672;10.064;2023-08-06T07:48:03;16.50;99.90
3275;DHT22;1649;53.672;10.064;2023-08-06T07:50:28;16.60;99.90
3275;DHT22;1649;53.672;10.064;2023-08-06T07:52:54;16.60;99.90
3275;DHT22;1649;53.672;10.064;2023-08-06T07:55:19;16.60;99.90
3275;DHT22;1649;53.672;10.064;2023-08-06T07:57:45;16.60;99.90
3275;DHT22;1649;53.672;10.064;2023-08-06T08:00:11;16.60;99.90
3275;DHT22;1649;53.672;10.064;2023-08-06T08:02:36;16.80;99.90
3275;DHT22;1649;53.672;10.064;2023-08-06T08:05:02;16.80;99.90
3275;DHT22;1649;53.672;10.064;2023-08-06T08:07:27;16.80;99.90
3275;DHT22;1649;53.672;10.064;2023-08-06T08:09:56;16.90;99.90
3275;DHT22;1649;53.672;10.064;2023-08-06T08:12:21;16.90;99.90
3275;DHT22;1649;53.672;10.064;2023-08-06T08:14:47;17.10;99.90
3275;DHT22;1649;53.672;10.064;2023-08-06T08:17:13;17.00;99.90
3275;DHT22;1649;53.672;10.064;2023-08-06T08:19:39;17.00;99.90
3275;DHT22;1649;53.672;10.064;2023-08-06T08:22:04;17.00;99.90
3275;DHT22;1649;53.672;10.064;2023-08-06T08:24:30;17.10;99.90
3275;DHT22;1649;53.672;10.064;2023-08-06T08:26:56;17.10;99.90
3275;DHT22;1649;53.672;10.064;2023-08-06T08:29:22;17.20;99.90
3275;DHT22;1649;53.672;10.064;2023-08-06T08:31:48;17.20;99.90
3275;DHT22;1649;53.672;10.064;2023-08-06T08:34:17;17.20;99.90
3275;DHT22;1649;53.672;10.064;2023-08-06T08:36:43;17.20;99.90
3275;DHT22;1649;53.672;10.064;2023-08-06T08:39:09;17.30;99.90
3275;DHT22;1649;53.672;10.064;2023-08-06T08:41:35;17.40;99.90
3275;DHT22;1649;53.672;10.064;2023-08-06T08:44:01;17.50;99.90
3275;DHT22;1649;53.672;10.064;2023-08-06T08:46:29;17.60;99.90
3275;DHT22;1649;53.672;10.064;2023-08-06T08:48:56;17.50;99.90
3275;DHT22;1649;53.672;10.064;2023-08-06T08:51:23;17.50;99.90
3275;DHT22;1649;53.672;10.064;2023-08-06T08:53:49;17.50;99.90
3275;DHT22;1649;53.672;10.064;2023-08-06T08:56:16;17.60;99.90
3275;DHT22;1649;53.672;10.064;2023-08-06T08:58:41;17.60;99.90
3275;DHT22;1649;53.672;10.064;2023-08-06T09:01:09;17.60;99.90
3275;DHT22;1649;53.672;10.064;2023-08-06T09:03:36;17.80;99.90
3275;DHT22;1649;53.672;10.064;2023-08-06T09:06:02;17.90;99.90
3275;DHT22;1649;53.672;10.064;2023-08-06T09:08:35;18.00;99.90
3275;DHT22;1649;53.672;10.064;2023-08-06T09:11:02;18.00;99.90
3275;DHT22;1649;53.672;10.064;2023-08-06T09:13:28;17.90;99.90
3275;DHT22;1649;53.672;10.064;2023-08-06T09:15:53;17.80;99.90
3275;DHT22;1649;53.672;10.064;2023-08-06T09:18:26;17.70;99.90
3275;DHT22;1649;53.672;10.064;2023-08-06T09:20:55;17.60;99.90
3275;DHT22;1649;53.672;10.064;2023-08-06T09:23:20;17.70;99.90
3275;DHT22;1649;53.672;10.064;2023-08-06T09:25:46;17.60;99.90
3275;DHT22;1649;53.672;10.064;2023-08-06T09:28:12;17.60;99.90
3275;DHT22;1649;53.672;10.064;2023-08-06T09:30:38;17.50;99.90
3275;DHT22;1649;53.672;10.064;2023-08-06T09:33:08;17.50;99.90
3275;DHT22;1649;53.672;10.064;2023-08-06T09:35:35;17.50;99.90
3275;DHT22;1649;53.672;10.064;2023-08-06T09:38:08;17.50;99.90
3275;DHT22;1649;53.672;10.064;2023-08-06T09:40:35;17.50;99.90
3275;DHT22;1649;53.672;10.064;2023-08-06T09:43:01;17.50;99.90
3275;DHT22;1649;53.672;10.064;2023-08-06T09:45:34;17.40;99.90
3275;DHT22;1649;53.672;10.064;2023-08-06T09:48:06;17.40;99.90
3275;DHT22;1649;53.672;10.064;2023-08-06T09:50:33;17.30;99.90
3275;DHT22;1649;53.672;10.064;2023-08-06T09:53:00;17.20;99.90
3275;DHT22;1649;53.672;10.064;2023-08-06T09:55:26;17.20;99.90
3275;DHT22;1649;53.672;10.064;2023-08-06T09:57:53;17.00;99.90
3275;DHT22;1649;53.672;10.064;2023-08-06T10:00:19;16.90;99.90
3275;DHT22;1649;53.672;10.064;2023-08-06T10:02:45;16.80;99.90
3275;DHT22;1649;53.672;10.064;2023-08-06T10:05:11;16.70;99.90
3275;DHT22;1649;53.672;10.064;2023-08-06T10:07:37;16.70;99.90
3275;DHT22;1649;53.672;10.064;2023-08-06T10:10:05;16.60;99.90
3275;DHT22;1649;53.672;10.064;2023-08-06T10:12:39;16.60;99.90
3275;DHT22;1649;53.672;10.064;2023-08-06T10:15:09;16.50;99.90
3275;DHT22;1649;53.672;10.064;2023-08-06T10:17:37;16.60;99.90
3275;DHT22;1649;53.672;10.064;2023-08-06T10:20:05;16.50;99.90
3275;DHT22;1649;53.672;10.064;2023-08-06T10:22:33;16.40;99.90
3275;DHT22;1649;53.672;10.064;2023-08-06T10:24:59;16.40;99.90
3275;DHT22;1649;53.672;10.064;2023-08-06T10:30:25;16.40;99.90
3275;DHT22;1649;53.672;10.064;2023-08-06T10:32:55;16.40;99.90
3275;DHT22;1649;53.672;10.064;2023-08-06T10:35:45;16.40;99.90
3275;DHT22;1649;53.672;10.064;2023-08-06T10:38:24;16.40;99.90
3275;DHT22;1649;53.672;10.064;2023-08-06T10:43:40;16.40;99.90
3275;DHT22;1649;53.672;10.064;2023-08-06T10:46:22;16.40;99.90
3275;DHT22;1649;53.672;10.064;2023-08-06T10:48:47;16.40;99.90
3275;DHT22;1649;53.672;10.064;2023-08-06T10:51:14;16.40;99.90
3275;DHT22;1649;53.672;10.064;2023-08-06T10:53:45;16.40;99.90
3275;DHT22;1649;53.672;10.064;2023-08-06T10:56:20;16.40;99.90
3275;DHT22;1649;53.672;10.064;2023-08-06T10:58:51;16.40;99.90
3275;DHT22;1649;53.672;10.064;2023-08-06T11:01:17;16.40;99.90
3275;DHT22;1649;53.672;10.064;2023-08-06T11:03:45;16.40;99.90
3275;DHT22;1649;53.672;10.064;2023-08-06T11:06:16;16.50;99.90
3275;DHT22;1649;53.672;10.064;2023-08-06T11:11:14;16.50;99.90
3275;DHT22;1649;53.672;10.064;2023-08-06T11:13:47;16.60;99.90
3275;DHT22;1649;53.672;10.064;2023-08-06T11:16:17;16.50;99.90
3275;DHT22;1649;53.672;10.064;2023-08-06T11:18:43;16.60;99.90
3275;DHT22;1649;53.672;10.064;2023-08-06T11:21:09;16.60;99.90
3275;DHT22;1649;53.672;10.064;2023-08-06T11:23:35;16.70;99.90
3275;DHT22;1649;53.672;10.064;2023-08-06T11:26:01;16.80;99.90
3275;DHT22;1649;53.672;10.064;2023-08-06T11:28:27;16.80;99.90
3275;DHT22;1649;53.672;10.064;2023-08-06T11:30:53;16.80;99.90
3275;DHT22;1649;53.672;10.064;2023-08-06T11:33:26;16.90;99.90
3275;DHT22;1649;53.672;10.064;2023-08-06T11:35:54;17.00;99.90
3275;DHT22;1649;53.672;10.064;2023-08-06T11:38:20;17.00;99.90
3275;DHT22;1649;53.672;10.064;2023-08-06T11:40:46;17.10;99.90
3275;DHT22;1649;53.672;10.064;2023-08-06T11:43:12;17.10;99.90
3275;DHT22;1649;53.672;10.064;2023-08-06T11:45:38;17.20;99.90
3275;DHT22;1649;53.672;10.064;2023-08-06T11:48:04;17.20;99.90
3275;DHT22;1649;53.672;10.064;2023-08-06T11:50:30;17.30;99.90
3275;DHT22;1649;53.672;10.064;2023-08-06T11:53:00;17.40;99.90
3275;DHT22;1649;53.672;10.064;2023-08-06T11:55:27;17.50;99.90
3275;DHT22;1649;53.672;10.064;2023-08-06T11:57:57;17.60;99.90
3275;DHT22;1649;53.672;10.064;2023-08-06T12:00:24;17.70;99.90
3275;DHT22;1649;53.672;10.064;2023-08-06T12:02:50;17.80;99.90
3275;DHT22;1649;53.672;10.064;2023-08-06T12:05:21;17.90;99.90
3275;DHT22;1649;53.672;10.064;2023-08-06T12:07:57;17.90;99.90
3275;DHT22;1649;53.672;10.064;2023-08-06T12:10:24;18.10;99.90
3275;DHT22;1649;53.672;10.064;2023-08-06T12:12:50;18.00;99.90
3275;DHT22;1649;53.672;10.064;2023-08-06T12:15:16;18.10;99.90
3275;DHT22;1649;53.672;10.064;2023-08-06T12:17:42;18.20;99.90
3275;DHT22;1649;53.672;10.064;2023-08-06T12:20:08;18.30;99.90
3275;DHT22;1649;53.672;10.064;2023-08-06T12:22:35;18.40;99.90
3275;DHT22;1649;53.672;10.064;2023-08-06T12:25:02;18.50;99.90
3275;DHT22;1649;53.672;10.064;2023-08-06T12:27:40;18.60;99.90
3275;DHT22;1649;53.672;10.064;2023-08-06T12:30:07;18.60;99.90
3275;DHT22;1649;53.672;10.064;2023-08-06T12:32:33;18.70;99.90
3275;DHT22;1649;53.672;10.064;2023-08-06T12:34:59;18.70;99.90
3275;DHT22;1649;53.672;10.064;2023-08-06T12:37:25;18.80;99.90
3275;DHT22;1649;53.672;10.064;2023-08-06T12:39:51;18.90;99.90
3275;DHT22;1649;53.672;10.064;2023-08-06T12:42:16;18.90;99.90
3275;DHT22;1649;53.672;10.064;2023-08-06T12:44:42;19.10;99.90
3275;DHT22;1649;53.672;10.064;2023-08-06T12:47:08;19.10;99.90
3275;DHT22;1649;53.672;10.064;2023-08-06T12:49:33;19.20;99.90
3275;DHT22;1649;53.672;10.064;2023-08-06T12:51:59;19.20;99.90
3275;DHT22;1649;53.672;10.064;2023-08-06T12:54:30;19.30;99.90
3275;DHT22;1649;53.672;10.064;2023-08-06T12:57:01;19.30;99.90
3275;DHT22;1649;53.672;10.064;2023-08-06T12:59:26;19.40;99.90
3275;DHT22;1649;53.672;10.064;2023-08-06T13:01:52;19.50;99.90
3275;DHT22;1649;53.672;10.064;2023-08-06T13:04:17;19.60;99.90
3275;DHT22;1649;53.672;10.064;2023-08-06T13:06:43;19.70;99.90
3275;DHT22;1649;53.672;10.064;2023-08-06T13:09:09;19.90;99.90
3275;DHT22;1649;53.672;10.064;2023-08-06T13:11:35;20.00;99.90
3275;DHT22;1649;53.672;10.064;2023-08-06T13:14:05;20.00;99.90
3275;DHT22;1649;53.672;10.064;2023-08-06T13:16:32;20.00;99.90
3275;DHT22;1649;53.672;10.064;2023-08-06T13:18:57;20.10;99.90
3275;DHT22;1649;53.672;10.064;2023-08-06T13:21:23;20.00;99.90
3275;DHT22;1649;53.672;10.064;2023-08-06T13:23:48;20.00;99.90
3275;DHT22;1649;53.672;10.064;2023-08-06T13:26:14;20.00;99.90
3275;DHT22;1649;53.672;10.064;2023-08-06T13:28:41;20.00;99.90
3275;DHT22;1649;53.672;10.064;2023-08-06T13:31:07;20.00;99.90
3275;DHT22;1649;53.672;10.064;2023-08-06T13:33:32;20.00;99.90
3275;DHT22;1649;53.672;10.064;2023-08-06T13:35:58;20.10;99.90
3275;DHT22;1649;53.672;10.064;2023-08-06T13:38:23;20.10;99.90
3275;DHT22;1649;53.672;10.064;2023-08-06T13:40:49;20.20;99.90
3275;DHT22;1649;53.672;10.064;2023-08-06T13:43:14;20.10;99.90
3275;DHT22;1649;53.672;10.064;2023-08-06T13:45:42;20.00;99.90
3275;DHT22;1649;53.672;10.064;2023-08-06T13:48:07;20.00;99.90
3275;DHT22;1649;53.672;10.064;2023-08-06T13:50:33;20.00;99.90
3275;DHT22;1649;53.672;10.064;2023-08-06T13:52:59;19.90;99.90
3275;DHT22;1649;53.672;10.064;2023-08-06T13:55:24;19.80;99.90
3275;DHT22;1649;53.672;10.064;2023-08-06T13:57:50;19.90;99.90
3275;DHT22;1649;53.672;10.064;2023-08-06T14:00:16;19.90;99.90
3275;DHT22;1649;53.672;10.064;2023-08-06T14:02:41;19.90;99.90
3275;DHT22;1649;53.672;10.064;2023-08-06T14:05:09;20.00;99.90
3275;DHT22;1649;53.672;10.064;2023-08-06T14:07:34;19.90;99.90
3275;DHT22;1649;53.672;10.064;2023-08-06T14:10:00;19.70;99.90
3275;DHT22;1649;53.672;10.064;2023-08-06T14:12:25;19.60;99.90
3275;DHT22;1649;53.672;10.064;2023-08-06T14:14:51;19.50;99.90
3275;DHT22;1649;53.672;10.064;2023-08-06T14:17:16;19.50;99.90
3275;DHT22;1649;53.672;10.064;2023-08-06T14:19:42;19.50;99.90
3275;DHT22;1649;53.672;10.064;2023-08-06T14:22:07;19.60;99.90
3275;DHT22;1649;53.672;10.064;2023-08-06T14:24:33;19.60;99.90
3275;DHT22;1649;53.672;10.064;2023-08-06T14:26:58;19.50;99.90
3275;DHT22;1649;53.672;10.064;2023-08-06T14:29:23;19.60;99.90
3275;DHT22;1649;53.672;10.064;2023-08-06T14:31:49;19.50;99.90
3275;DHT22;1649;53.672;10.064;2023-08-06T14:34:15;19.50;99.90
3275;DHT22;1649;53.672;10.064;2023-08-06T14:36:41;19.30;99.90
3275;DHT22;1649;53.672;10.064;2023-08-06T14:39:06;19.20;99.90
3275;DHT22;1649;53.672;10.064;2023-08-06T14:41:32;19.00;99.90
3275;DHT22;1649;53.672;10.064;2023-08-06T14:43:57;18.80;99.90
3275;DHT22;1649;53.672;10.064;2023-08-06T14:46:23;18.60;99.90
3275;DHT22;1649;53.672;10.064;2023-08-06T14:48:48;18.60;99.90
3275;DHT22;1649;53.672;10.064;2023-08-06T14:51:14;18.60;99.90
3275;DHT22;1649;53.672;10.064;2023-08-06T14:53:40;18.60;99.90
3275;DHT22;1649;53.672;10.064;2023-08-06T14:56:06;18.50;99.90
3275;DHT22;1649;53.672;10.064;2023-08-06T14:58:31;18.60;99.90
3275;DHT22;1649;53.672;10.064;2023-08-06T15:00:57;18.70;99.90
3275;DHT22;1649;53.672;10.064;2023-08-06T15:03:22;18.70;99.90
3275;DHT22;1649;53.672;10.064;2023-08-06T15:05:48;18.80;99.90
3275;DHT22;1649;53.672;10.064;2023-08-06T15:08:13;18.80;99.90
3275;DHT22;1649;53.672;10.064;2023-08-06T15:10:39;18.90;99.90
3275;DHT22;1649;53.672;10.064;2023-08-06T15:13:05;19.00;99.90
3275;DHT22;1649;53.672;10.064;2023-08-06T15:15:30;18.90;99.90
3275;DHT22;1649;53.672;10.064;2023-08-06T15:17:55;19.00;99.90
3275;DHT22;1649;53.672;10.064;2023-08-06T15:20:23;19.00;99.90
3275;DHT22;1649;53.672;10.064;2023-08-06T15:22:48;19.00;99.90
3275;DHT22;1649;53.672;10.064;2023-08-06T15:25:14;19.00;99.90
3275;DHT22;1649;53.672;10.064;2023-08-06T15:27:39;19.00;99.90
3275;DHT22;1649;53.672;10.064;2023-08-06T15:30:06;19.00;99.90
3275;DHT22;1649;53.672;10.064;2023-08-06T15:32:31;19.00;99.90
3275;DHT22;1649;53.672;10.064;2023-08-06T15:34:57;18.90;99.90
3275;DHT22;1649;53.672;10.064;2023-08-06T15:37:22;18.90;99.90
3275;DHT22;1649;53.672;10.064;2023-08-06T15:39:48;18.80;99.90
3275;DHT22;1649;53.672;10.064;2023-08-06T15:42:13;18.80;99.90
3275;DHT22;1649;53.672;10.064;2023-08-06T15:44:40;18.80;99.90
3275;DHT22;1649;53.672;10.064;2023-08-06T15:47:05;18.80;99.90
3275;DHT22;1649;53.672;10.064;2023-08-06T15:49:31;18.80;99.90
3275;DHT22;1649;53.672;10.064;2023-08-06T15:51:56;18.80;99.90
3275;DHT22;1649;53.672;10.064;2023-08-06T15:54:22;18.80;99.90
3275;DHT22;1649;53.672;10.064;2023-08-06T15:56:47;18.70;99.90